createdAt,value
2024-04-18T00:01:33.119Z,88.5
2024-04-18T00:16:43.505Z,88.5
2024-04-18T00:32:02.166Z,89
2024-04-18T00:47:12.301Z,88.5
2024-04-18T01:02:15.125Z,88
2024-04-18T01:32:36.297Z,87
2024-04-18T01:47:54.669Z,86.5
2024-04-18T02:03:05.125Z,90.5
2024-04-18T02:18:07.813Z,90
2024-04-18T02:33:18.474Z,86.5
2024-04-18T02:48:28.948Z,86
2024-04-18T03:03:47.228Z,87
2024-04-18T03:18:57.689Z,86.5
2024-04-18T04:04:21.718Z,93.5
2024-04-18T04:19:39.835Z,94
2024-04-18T04:35:10.950Z,93.5
2024-04-18T04:49:53.153Z,92.5
2024-04-18T05:20:14.184Z,87.5
2024-04-18T05:50:35.471Z,84
2024-04-18T06:05:45.548Z,83
2024-04-18T06:20:56.072Z,82.5
2024-04-18T07:06:35.254Z,76
2024-04-18T07:21:38.122Z,74
2024-04-18T07:36:56.221Z,73
2024-04-18T07:52:06.785Z,68
2024-04-18T08:07:09.570Z,68.5
2024-04-18T08:22:19.982Z,65.5
2024-04-18T08:37:38.206Z,65
2024-04-18T08:52:40.942Z,64.5
2024-04-18T09:07:59.230Z,62.5
2024-04-18T09:38:13.184Z,61
2024-04-18T09:53:22.971Z,59.5
2024-04-18T10:08:33.367Z,60.5
2024-04-18T10:23:43.965Z,57.5
2024-04-18T10:38:54.374Z,52
2024-04-18T11:09:15.355Z,44.5
2024-04-18T11:24:33.562Z,43
2024-04-18T11:39:36.454Z,41.5
2024-04-18T11:54:54.851Z,33.5
2024-04-18T12:09:57.350Z,42
2024-04-18T12:25:10.152Z,37.5
2024-04-18T12:40:18.294Z,33.5
2024-04-18T12:55:28.727Z,35.5
2024-04-18T13:10:46.910Z,42.5
2024-04-18T13:25:49.728Z,40
2024-04-18T14:11:21.220Z,42.5
2024-04-18T14:41:42.191Z,44
2024-04-18T14:57:01.972Z,43.5
2024-04-18T15:12:04.908Z,43.5
2024-04-18T15:27:13.773Z,43
2024-04-18T15:42:24.181Z,42.5
2024-04-18T16:12:45.095Z,44.5
2024-04-18T16:58:24.273Z,44
2024-04-18T17:13:27.050Z,47.5
2024-04-18T17:28:37.547Z,47.5
2024-04-18T17:43:48.052Z,50
2024-04-18T17:58:58.456Z,52
2024-04-18T18:14:17.034Z,52.5
2024-04-18T18:44:30.050Z,57
2024-04-18T19:14:51.120Z,61
2024-04-18T19:30:02.264Z,62.5
2024-04-18T19:45:12.068Z,63
2024-04-18T20:00:23.174Z,63.5
2024-04-18T21:01:04.768Z,65.5
2024-04-18T21:16:15.497Z,66.5
2024-04-18T21:46:44.078Z,67
2024-04-18T22:01:46.831Z,68
2024-04-18T22:17:05.260Z,68
2024-04-18T22:32:08.926Z,68.5
2024-04-18T22:47:18.579Z,69
2024-04-18T23:02:36.704Z,69.5
2024-04-18T23:17:40.391Z,69.5
